Time;durP1;ratioP1;P1;durP2;ratioP2;P2;SDS_P1;SDS_P2;PMS_P1;PMS_P2;Temp;Humidity;BMP_temperature;BMP_pressure;BME280_temperature;BME280_humidity;BME280_pressure;Samples;Min_cycle;Max_cycle;Signal;HPM_P1;HPM_P2
2022/12/07 09:25:19;;;;;;;14.88;7.47;;;;;;;2.19;100.00;99088.44;5087996;27;20368;-78
2022/12/07 09:27:45;;;;;;;15.40;7.60;;;;;;;2.32;100.00;99119.56;5089236;28;20052;-79
2022/12/07 09:30:13;;;;;;;14.68;8.45;;;;;;;2.29;100.00;99104.59;5088347;28;20048;-79
2022/12/07 09:32:39;;;;;;;15.20;7.25;;;;;;;2.43;100.00;99123.00;5087563;28;20059;-79
2022/12/07 09:35:07;;;;;;;16.00;7.20;;;;;;;2.41;100.00;99116.06;5087953;28;20554;-79
2022/12/07 09:37:35;;;;;;;20.38;7.38;;;;;;;2.40;100.00;99099.13;5086630;28;20044;-79
2022/12/07 09:40:02;;;;;;;15.75;7.10;;;;;;;2.45;100.00;99096.03;5087397;28;20052;-79
2022/12/07 09:42:34;;;;;;;16.88;6.25;;;;;;;2.57;100.00;99107.53;5087235;28;20062;-79
2022/12/07 09:45:03;;;;;;;18.33;7.10;;;;;;;2.47;100.00;99094.09;5087706;28;20070;-79
2022/12/07 09:47:30;;;;;;;14.20;6.43;;;;;;;2.55;100.00;99106.81;5085286;28;20056;-79
2022/12/07 09:50:03;;;;;;;11.07;5.60;;;;;;;2.54;100.00;99089.84;5087677;28;20048;-79
2022/12/07 09:52:31;;;;;;;12.70;7.22;;;;;;;2.77;100.00;99113.81;5086925;28;20488;-78
2022/12/07 09:54:58;;;;;;;15.60;7.05;;;;;;;2.75;100.00;99105.88;5086764;28;20055;-79
2022/12/07 09:57:34;;;;;;;11.88;6.57;;;;;;;2.62;100.00;99086.50;5086987;28;20078;-79
2022/12/07 10:00:05;;;;;;;11.63;5.78;;;;;;;2.79;100.00;99095.75;5087605;28;20591;-79
2022/12/07 10:02:37;;;;;;;12.73;6.13;;;;;;;2.74;100.00;99076.50;5083373;28;20052;-79
2022/12/07 10:05:06;;;;;;;10.05;5.22;;;;;;;2.75;100.00;99105.88;5067173;28;20047;-79
2022/12/07 10:07:33;;;;;;;9.60;5.23;;;;;;;2.87;100.00;99111.16;5067400;28;20045;-79
2022/12/07 10:10:00;;;;;;;16.02;6.00;;;;;;;2.76;100.00;99083.44;5067034;28;20045;-79
2022/12/07 10:12:26;;;;;;;12.82;5.55;;;;;;;2.63;100.00;99089.06;5067681;28;20099;-79
2022/12/07 10:15:03;;;;;;;11.13;5.45;;;;;;;2.65;100.00;99073.66;5083542;28;20064;-79
2022/12/07 10:17:34;;;;;;;11.70;4.78;;;;;;;2.80;100.00;99092.94;5087535;28;20048;-79
2022/12/07 10:20:15;;;;;;;9.35;4.57;;;;;;;2.81;100.00;99083.88;5079253;28;20151;-79
2022/12/07 10:22:55;;;;;;;9.93;4.07;;;;;;;2.73;100.00;99075.66;5066588;28;20084;-79
2022/12/07 10:25:23;;;;;;;9.10;5.22;;;;;;;2.73;100.00;99062.25;5066550;28;20041;-79
2022/12/07 10:27:59;;;;;;;8.93;4.95;;;;;;;2.81;100.00;99072.28;5066912;28;20051;-79
2022/12/07 10:30:27;;;;;;;18.58;4.60;;;;;;;2.86;100.00;99077.25;5081771;28;20052;-79
2022/12/07 10:32:53;;;;;;;11.00;4.70;;;;;;;2.82;100.00;99071.31;5086099;28;20040;-79
2022/12/07 10:35:23;;;;;;;9.07;4.45;;;;;;;2.96;100.00;99083.47;5080492;28;20040;-79
2022/12/07 10:37:50;;;;;;;;;;;;;;;2.99;100.00;99084.03;5059700;28;20045;-79
2022/12/07 10:40:30;;;;;;;8.75;4.40;;;;;;;3.04;100.00;99064.84;5051428;28;19924;-79
2022/12/07 10:43:05;;;;;;;;;;;;;;;3.11;100.00;99076.72;5053539;28;20080;-79
2022/12/07 10:45:33;;;;;;;5.70;3.55;;;;;;;2.97;100.00;99061.03;5053252;28;19921;-79
2022/12/07 10:48:07;;;;;;;11.75;4.68;;;;;;;3.05;100.00;99049.56;5066406;28;20045;-79
2022/12/07 10:50:48;;;;;;;5.78;3.47;;;;;;;3.13;100.00;99063.16;5072961;28;20122;-79
2022/12/07 10:53:33;;;;;;;11.02;3.85;;;;;;;2.99;100.00;99045.59;5070673;28;20056;-79
2022/12/07 10:56:22;;;;;;;7.93;4.40;;;;;;;3.31;100.00;99055.25;5053067;28;20143;-79
2022/12/07 10:59:00;;;;;;;6.87;3.80;;;;;;;3.13;100.00;99039.84;5053196;28;20056;-79
2022/12/07 11:01:33;;;;;;;9.32;4.07;;;;;;;3.29;100.00;99041.09;5053198;28;20317;-79
2022/12/07 11:04:20;;;;;;;12.23;4.15;;;;;;;3.28;100.00;99028.66;5055735;28;20044;-79
2022/12/07 11:06:55;;;;;;;12.10;5.10;;;;;;;3.38;100.00;99052.84;5064742;28;20049;-79
2022/12/07 11:09:44;;;;;;;12.18;3.72;;;;;;;3.32;100.00;99041.66;5072528;28;20058;-79
2022/12/07 11:12:20;;;;;;;8.13;4.80;;;;;;;3.40;100.00;99032.88;5061821;28;20314;-79
2022/12/07 11:14:57;;;;;;;9.05;4.68;;;;;;;3.52;100.00;99047.03;5072688;28;20059;-79
2022/12/07 11:17:35;;;;;;;7.63;4.25;;;;;;;3.23;100.00;99022.88;5072910;28;20487;-79
2022/12/07 11:20:05;;;;;;;8.02;4.25;;;;;;;3.40;100.00;99043.63;5072508;28;20294;-79
2022/12/07 11:22:44;;;;;;;8.27;3.88;;;;;;;3.38;100.00;99037.56;5070416;28;20048;-79
2022/12/07 11:25:29;;;;;;;8.77;4.57;;;;;;;3.45;100.00;99032.50;5072051;28;20055;-79
2022/12/07 11:28:09;;;;;;;7.90;4.45;;;;;;;3.36;100.00;99007.31;5065562;28;20056;-79
2022/12/07 11:30:43;;;;;;;8.38;4.72;;;;;;;3.45;100.00;99005.63;5052508;28;20063;-79
2022/12/07 11:33:22;;;;;;;13.40;5.03;;;;;;;3.64;100.00;99024.38;5051958;28;20053;-79
2022/12/07 11:35:59;;;;;;;7.97;4.35;;;;;;;3.75;100.00;99030.59;5052376;28;20053;-79
2022/12/07 11:38:34;;;;;;;9.77;5.47;;;;;;;3.48;100.00;99005.31;5069240;28;20139;-79
2022/12/07 11:41:13;;;;;;;13.55;6.28;;;;;;;3.62;100.00;99014.78;5068325;28;20139;-78
2022/12/07 11:43:51;;;;;;;9.60;4.95;;;;;;;3.47;100.00;99017.06;5051517;28;20045;-79
2022/12/07 11:46:18;;;;;;;12.40;4.40;;;;;;;3.49;100.00;99024.00;5061651;28;20139;-79
2022/12/07 11:48:51;;;;;;;11.80;5.80;;;;;;;3.37;100.00;99006.28;5071477;28;20304;-78
2022/12/07 11:51:20;;;;;;;11.27;6.30;;;;;;;3.49;100.00;99039.25;5072227;28;20048;-79
2022/12/07 11:53:53;;;;;;;12.45;5.43;;;;;;;3.41;100.00;99007.72;5071566;28;20052;-79
2022/12/07 11:56:23;;;;;;;11.57;5.15;;;;;;;3.31;100.00;98994.31;5070586;28;20480;-79
2022/12/07 11:58:55;;;;;;;10.25;5.43;;;;;;;3.51;100.00;99013.94;5071812;28;20053;-79
2022/12/07 12:01:40;;;;;;;9.82;5.28;;;;;;;3.44;100.00;98994.00;5069628;28;20095;-80
2022/12/07 12:04:24;;;;;;;13.70;6.32;;;;;;;3.43;100.00;99003.03;5050864;28;20056;-79
2022/12/07 12:06:51;;;;;;;9.63;5.38;;;;;;;3.27;100.00;98979.44;5051754;28;20063;-79
2022/12/07 12:09:22;;;;;;;13.73;5.68;;;;;;;3.33;100.00;99004.91;5051637;28;20057;-77
2022/12/07 12:12:11;;;;;;;9.20;5.20;;;;;;;3.29;100.00;98977.47;5057474;28;20054;-79
2022/12/07 12:14:49;;;;;;;10.18;4.63;;;;;;;3.40;100.00;98992.56;5065395;28;20560;-79
2022/12/07 12:17:43;;;;;;;12.85;5.38;;;;;;;3.41;100.00;98994.28;5071691;28;20040;-79
2022/12/07 12:20:21;;;;;;;14.48;6.93;;;;;;;3.36;100.00;98980.44;5054229;28;20053;-79
2022/12/07 12:22:54;;;;;;;10.52;5.57;;;;;;;3.26;100.00;98967.00;5050893;28;20495;-79
2022/12/07 12:25:24;;;;;;;11.55;6.10;;;;;;;3.25;100.00;98983.25;5051233;28;20049;-79
2022/12/07 12:27:55;;;;;;;12.48;5.80;;;;;;;3.22;100.00;98972.81;5062700;28;20052;-79
2022/12/07 12:30:30;;;;;;;11.93;5.40;;;;;;;3.24;100.00;98968.13;5071281;28;20407;-79
2022/12/07 12:33:05;;;;;;;11.45;5.65;;;;;;;3.31;100.00;98982.69;5070287;28;20487;-79
2022/12/07 12:35:36;;;;;;;10.35;5.53;;;;;;;3.36;100.00;98983.97;5067713;28;20389;-79
2022/12/07 12:38:33;;;;;;;11.60;6.07;;;;;;;3.17;100.00;98960.63;5060991;28;20056;-79
2022/12/07 12:41:00;;;;;;;12.57;6.40;;;;;;;3.34;100.00;98977.91;5064375;28;20153;-79
2022/12/07 12:43:45;;;;;;;14.88;6.82;;;;;;;3.36;100.00;98975.91;5063465;28;20481;-79
2022/12/07 12:46:47;;;;;;;11.63;6.30;;;;;;;3.52;100.00;98988.75;5059879;28;20275;-78
2022/12/07 12:49:44;;;;;;;13.75;7.15;;;;;;;3.28;100.00;98956.09;5064496;28;20562;-79
2022/12/07 12:52:47;;;;;;;18.65;7.43;;;;;;;3.40;100.00;98981.00;5064107;28;20053;-79
2022/12/07 12:55:20;;;;;;;10.73;5.85;;;;;;;3.17;100.00;98957.94;5065148;28;20048;-79
2022/12/07 12:57:46;;;;;;;12.15;5.93;;;;;;;3.26;100.00;98975.06;5057287;28;20060;-80
2022/12/07 13:00:17;;;;;;;11.68;5.95;;;;;;;3.29;100.00;98977.47;5057070;28;20056;-79
2022/12/07 13:02:49;;;;;;;9.77;5.88;;;;;;;3.22;100.00;98965.59;5069771;28;20048;-80
2022/12/07 13:05:21;;;;;;;10.82;5.95;;;;;;;3.20;100.00;98956.81;5062337;28;20198;-79
2022/12/07 13:07:59;;;;;;;10.52;5.63;;;;;;;3.24;100.00;98965.44;5062182;28;20365;-79
2022/12/07 13:10:40;;;;;;;13.32;6.18;;;;;;;3.30;100.00;98960.34;5066539;28;20507;-79
2022/12/07 13:13:35;;;;;;;12.05;6.32;;;;;;;3.13;100.00;98935.06;5048453;28;20045;-79
2022/12/07 13:16:34;;;;;;;12.23;6.32;;;;;;;3.31;100.00;98962.06;5048933;28;20049;-79
2022/12/07 13:19:01;;;;;;;9.98;5.13;;;;;;;3.32;100.00;98952.16;5044166;28;20431;-80
2022/12/07 13:21:44;;;;;;;14.55;6.32;;;;;;;3.26;100.00;98933.91;5050454;28;20056;-79
2022/12/07 13:24:13;;;;;;;12.63;6.65;;;;;;;3.35;100.00;98939.25;5068510;28;20053;-79
2022/12/07 13:26:43;;;;;;;11.65;5.50;;;;;;;3.25;100.00;98922.34;5065628;28;20055;-79
2022/12/07 13:29:12;;;;;;;;;;;;;;;3.42;100.00;98955.69;5062158;28;20049;-79
2022/12/07 13:31:40;;;;;;;16.58;7.50;;;;;;;3.42;100.00;98944.06;5070255;28;19928;-79
2022/12/07 13:34:31;;;;;;;15.43;6.47;;;;;;;3.40;100.00;98946.88;5069723;28;20048;-79
2022/12/07 13:36:58;;;;;;;12.02;6.97;;;;;;;3.38;100.00;98926.56;5070450;28;20056;-80
2022/12/07 13:39:26;;;;;;;11.43;6.13;;;;;;;3.39;100.00;98928.22;5068991;28;20052;-80
2022/12/07 13:41:57;;;;;;;11.45;5.95;;;;;;;3.37;100.00;98925.69;5069777;28;20052;-80
2022/12/07 13:44:25;;;;;;;9.30;5.50;;;;;;;3.46;100.00;98949.03;5058965;28;20057;-79
2022/12/07 13:47:00;;;;;;;11.43;6.30;;;;;;;3.37;100.00;98936.44;5050417;28;20052;-80
2022/12/07 13:49:29;;;;;;;12.68;6.35;;;;;;;3.40;100.00;98944.19;5050603;28;20293;-79
2022/12/07 13:52:13;;;;;;;9.32;5.72;;;;;;;3.29;100.00;98920.19;5050124;28;20160;-79
2022/12/07 13:54:44;;;;;;;13.65;6.47;;;;;;;3.33;100.00;98932.38;5050352;28;20045;-79
2022/12/07 13:57:12;;;;;;;16.52;8.80;;;;;;;3.34;100.00;98931.34;5056288;28;20078;-79
2022/12/07 13:59:39;;;;;;;15.20;7.68;;;;;;;3.18;100.00;98911.31;5069989;28;20487;-79
2022/12/07 14:02:19;;;;;;;16.27;8.23;;;;;;;3.34;100.00;98936.72;5052685;28;20060;-79
2022/12/07 14:04:46;;;;;;;14.80;7.10;;;;;;;3.38;100.00;98940.81;5050199;28;20062;-79
2022/12/07 14:07:25;;;;;;;13.18;7.07;;;;;;;3.30;100.00;98921.91;5049984;28;20053;-79
2022/12/07 14:09:57;;;;;;;14.65;8.05;;;;;;;3.32;100.00;98942.25;5048638;28;20547;-79
2022/12/07 14:12:26;;;;;;;16.67;7.97;;;;;;;3.35;100.00;98936.56;5053156;28;20102;-79
2022/12/07 14:14:54;;;;;;;13.50;7.27;;;;;;;3.26;100.00;98915.94;5073104;28;20041;-79
2022/12/07 14:17:23;;;;;;;16.55;6.82;;;;;;;3.39;100.00;98936.28;5072321;28;20708;-79
2022/12/07 14:19:52;;;;;;;16.48;9.30;;;;;;;3.32;100.00;98934.19;5073889;28;20049;-79
2022/12/07 14:22:32;;;;;;;15.07;7.17;;;;;;;3.31;100.00;98934.31;5072888;28;20052;-80
2022/12/07 14:25:15;;;;;;;15.60;7.40;;;;;;;3.24;100.00;98926.00;5073435;28;20349;-79
2022/12/07 14:27:52;;;;;;;14.27;7.05;;;;;;;3.26;100.00;98947.34;5073601;28;20494;-79
2022/12/07 14:30:20;;;;;;;15.02;6.32;;;;;;;3.28;100.00;98948.91;5067541;28;20505;-79
2022/12/07 14:32:50;;;;;;;13.98;7.20;;;;;;;3.20;100.00;98932.66;5072739;28;20048;-79
2022/12/07 14:35:19;;;;;;;13.38;6.28;;;;;;;3.16;100.00;98928.53;5063544;28;20057;-79
2022/12/07 14:37:49;;;;;;;13.10;7.00;;;;;;;3.23;100.00;98936.91;5053476;28;20143;-79
2022/12/07 14:40:18;;;;;;;17.17;6.78;;;;;;;3.20;100.00;98927.28;5053351;28;20382;-79
2022/12/07 14:42:46;;;;;;;14.10;6.97;;;;;;;3.04;100.00;98906.38;5052698;28;20055;-79
2022/12/07 14:45:19;;;;;;;14.63;7.32;;;;;;;3.15;100.00;98929.56;5053043;28;20049;-79
2022/12/07 14:47:46;;;;;;;14.27;7.13;;;;;;;3.05;100.00;98918.81;5065566;28;20041;-79
2022/12/07 14:50:14;;;;;;;16.80;7.97;;;;;;;2.98;100.00;98904.25;5072814;28;20049;-80
2022/12/07 14:52:44;;;;;;;15.18;7.15;;;;;;;3.19;100.00;98947.94;5071392;28;20056;-79
2022/12/07 14:55:15;;;;;;;17.15;7.75;;;;;;;3.05;100.00;98934.09;5073146;28;20577;-80
2022/12/07 14:57:42;;;;;;;15.88;6.70;;;;;;;3.05;100.00;98940.28;5072945;28;20070;-79
2022/12/07 15:00:14;;;;;;;19.10;7.70;;;;;;;2.94;100.00;98943.16;5072977;28;20056;-79
2022/12/07 15:02:42;;;;;;;15.30;6.82;;;;;;;2.79;100.00;98927.44;5068231;28;20037;-79
2022/12/07 15:05:09;;;;;;;12.68;6.57;;;;;;;2.74;100.00;98920.78;5072806;28;20534;-79
2022/12/07 15:07:36;;;;;;;12.55;6.00;;;;;;;2.72;100.00;98923.63;5073015;28;20048;-79
2022/12/07 15:10:02;;;;;;;14.82;6.85;;;;;;;2.86;100.00;98948.34;5055148;28;20053;-79
2022/12/07 15:12:29;;;;;;;17.70;8.57;;;;;;;2.70;100.00;98922.09;5051881;28;20055;-79
2022/12/07 15:14:56;;;;;;;14.63;7.78;;;;;;;2.83;100.00;98944.97;5052894;28;20045;-79
2022/12/07 15:17:22;;;;;;;15.93;7.82;;;;;;;2.90;100.00;98947.94;5053305;28;20044;-79
2022/12/07 15:19:50;;;;;;;15.75;8.25;;;;;;;2.90;100.00;98944.41;5072752;28;20464;-79
2022/12/07 15:22:17;;;;;;;15.90;8.35;;;;;;;2.85;100.00;98936.78;5071887;28;20056;-79
2022/12/07 15:24:43;;;;;;;16.40;7.80;;;;;;;2.82;100.00;98934.38;5072441;28;20059;-79
2022/12/07 15:27:10;;;;;;;16.55;8.40;;;;;;;2.77;100.00;98928.56;5071117;28;20136;-79
2022/12/07 15:29:36;;;;;;;17.30;8.13;;;;;;;2.92;100.00;98939.72;5072536;28;20059;-79
2022/12/07 15:32:03;;;;;;;16.30;7.75;;;;;;;2.73;100.00;98925.31;5072023;28;20048;-79
2022/12/07 15:34:31;;;;;;;13.57;7.88;;;;;;;2.73;100.00;98922.66;5065353;28;20130;-79
2022/12/07 15:36:59;;;;;;;18.42;8.45;;;;;;;2.74;100.00;98918.97;5072141;28;20079;-79
2022/12/07 15:39:25;;;;;;;19.55;8.32;;;;;;;2.73;100.00;98941.44;5072113;28;20052;-80
2022/12/07 15:41:52;;;;;;;14.90;8.15;;;;;;;2.65;100.00;98928.72;5071808;28;20045;-81
2022/12/07 15:47:04;;;;;;;19.38;8.55;;;;;;;2.48;100.00;98929.38;5072175;28;20077;-80
2022/12/07 15:49:31;;;;;;;15.75;8.02;;;;;;;2.56;100.00;98931.38;5071840;28;20059;-80
2022/12/07 15:51:59;;;;;;;19.90;10.07;;;;;;;2.42;100.00;98928.09;5069918;28;20044;-81
2022/12/07 15:54:27;;;;;;;17.95;8.70;;;;;;;2.34;100.00;98919.06;5071147;28;20507;-79
2022/12/07 15:56:54;;;;;;;20.10;10.15;;;;;;;2.36;100.00;98914.41;5071751;28;20125;-80
2022/12/07 15:59:21;;;;;;;18.73;10.65;;;;;;;2.37;100.00;98914.28;5070566;28;20041;-80
2022/12/07 16:01:48;;;;;;;22.25;10.23;;;;;;;2.45;100.00;98935.03;5071719;28;20048;-80
2022/12/07 16:04:14;;;;;;;17.15;8.75;;;;;;;2.40;100.00;98927.41;5070756;28;20053;-80
2022/12/07 16:06:41;;;;;;;20.73;10.35;;;;;;;2.29;100.00;98903.41;5068543;28;20044;-80
2022/12/07 16:09:09;;;;;;;24.45;10.55;;;;;;;2.33;100.00;98910.16;5065845;28;20132;-80
2022/12/07 16:11:36;;;;;;;23.35;10.13;;;;;;;2.18;100.00;98896.28;5051565;28;20071;-80
2022/12/07 16:14:03;;;;;;;18.92;9.23;;;;;;;2.40;100.00;98929.25;5050774;28;20416;-80
2022/12/07 16:16:30;;;;;;;21.70;9.77;;;;;;;2.36;100.00;98909.03;5052207;28;20123;-80
2022/12/07 16:18:56;;;;;;;24.25;10.52;;;;;;;2.45;100.00;98911.75;5051551;28;20053;-80
2022/12/07 16:21:23;;;;;;;22.17;9.77;;;;;;;2.23;100.00;98890.50;5051507;28;20484;-79
2022/12/07 16:23:50;;;;;;;24.40;10.45;;;;;;;2.37;100.00;98906.22;5055489;28;20380;-80
2022/12/07 16:26:19;;;;;;;21.27;10.90;;;;;;;2.29;100.00;98892.66;5070635;28;20093;-80
2022/12/07 16:28:49;;;;;;;23.90;9.70;;;;;;;2.34;100.00;98906.50;5071189;28;20044;-81
2022/12/07 16:31:18;;;;;;;28.00;11.52;;;;;;;2.31;100.00;98898.72;5070814;28;20052;-80
2022/12/07 16:33:45;;;;;;;26.77;11.27;;;;;;;2.35;100.00;98888.56;5064539;28;20144;-80
2022/12/07 16:36:14;;;;;;;22.60;12.02;;;;;;;2.30;100.00;98897.91;5050964;28;20133;-80
2022/12/07 16:38:40;;;;;;;24.30;11.82;;;;;;;2.42;100.00;98890.53;5050776;28;20057;-80
2022/12/07 16:41:07;;;;;;;31.33;12.32;;;;;;;2.44;100.00;98874.34;5057818;28;20055;-80
2022/12/07 16:43:36;;;;;;;22.50;11.73;;;;;;;2.32;100.00;98857.50;5070280;28;20055;-80
2022/12/07 16:46:04;;;;;;;25.58;11.73;;;;;;;2.32;100.00;98851.28;5070661;28;20048;-80
2022/12/07 16:48:30;;;;;;;27.60;11.90;;;;;;;2.38;100.00;98859.63;5070809;28;20139;-80
2022/12/07 16:50:58;;;;;;;34.72;15.20;;;;;;;2.27;100.00;98849.03;5070081;28;20396;-80
2022/12/07 16:53:28;;;;;;;34.80;15.60;;;;;;;2.42;100.00;98863.72;5069847;28;20102;-80
2022/12/07 16:56:26;;;;;;;25.92;13.32;;;;;;;2.51;100.00;98872.75;5066394;28;20072;-80
2022/12/07 16:58:54;;;;;;;21.45;11.13;;;;;;;2.26;100.00;98861.59;5070179;28;20048;-79
2022/12/07 17:01:22;;;;;;;21.50;11.30;;;;;;;2.40;100.00;98879.09;5070311;28;20052;-79
2022/12/07 17:03:49;;;;;;;21.90;10.85;;;;;;;2.42;100.00;98882.50;5069861;28;20082;-79
2022/12/07 17:06:18;;;;;;;21.60;10.13;;;;;;;2.18;100.00;98850.69;5070114;28;20135;-80
2022/12/07 17:08:44;;;;;;;22.17;10.38;;;;;;;2.29;100.00;98876.56;5056538;28;20052;-79
2022/12/07 17:11:13;;;;;;;20.40;11.27;;;;;;;2.24;100.00;98850.16;5048091;28;20196;-79
2022/12/07 17:16:26;;;;;;;18.40;8.90;;;;;;;2.22;100.00;98878.09;5070494;28;20059;-79
2022/12/07 17:18:52;;;;;;;21.55;10.80;;;;;;;2.32;100.00;98888.84;5070399;28;20642;-79
2022/12/07 17:21:19;;;;;;;20.98;11.32;;;;;;;2.22;100.00;98872.75;5070112;28;20049;-80
2022/12/07 17:23:46;;;;;;;21.95;11.35;;;;;;;2.30;100.00;98884.47;5069479;28;20052;-80
2022/12/07 17:26:15;;;;;;;22.08;10.18;;;;;;;2.42;100.00;98877.13;5052535;28;20048;-80
2022/12/07 17:28:42;;;;;;;21.92;11.82;;;;;;;2.33;100.00;98885.19;5059478;28;20040;-80
2022/12/07 17:31:10;;;;;;;21.80;10.45;;;;;;;2.10;100.00;98858.59;5070649;28;20056;-85
2022/12/07 17:33:39;;;;;;;19.92;10.25;;;;;;;2.15;100.00;98871.59;5069206;28;20045;-81
2022/12/07 17:36:11;;;;;;;22.00;10.20;;;;;;;2.12;100.00;98854.81;5071237;28;20103;-81
2022/12/07 17:38:38;;;;;;;22.80;10.48;;;;;;;2.08;100.00;98856.06;5070362;28;20053;-81
2022/12/07 17:41:10;;;;;;;21.35;10.15;;;;;;;2.20;100.00;98856.78;5069726;28;20051;-81
2022/12/07 17:43:39;;;;;;;18.42;9.20;;;;;;;2.30;100.00;98864.84;5049497;28;20132;-81
2022/12/07 17:46:08;;;;;;;22.33;9.45;;;;;;;2.20;100.00;98864.84;5059382;28;20056;-81
2022/12/07 17:48:35;;;;;;;23.58;9.65;;;;;;;2.09;100.00;98843.50;5074045;28;20102;-81
2022/12/07 17:53:49;;;;;;;20.67;10.27;;;;;;;2.09;100.00;98857.75;5073434;28;20063;-81
2022/12/07 17:56:16;;;;;;;25.35;11.73;;;;;;;2.20;100.00;98859.47;5071421;28;20136;-81
2022/12/07 18:01:39;;;;;;;19.13;10.07;;;;;;;2.09;100.00;98851.53;5052040;28;20728;-79
2022/12/07 18:04:05;;;;;;;24.33;11.13;;;;;;;2.06;100.00;98839.28;5052730;28;20060;-81
2022/12/07 18:06:34;;;;;;;25.55;12.25;;;;;;;2.15;100.00;98859.03;5061307;28;20048;-82
2022/12/07 18:09:01;;;;;;;18.77;9.82;;;;;;;2.05;100.00;98848.28;5046321;28;20049;-81
2022/12/07 18:11:28;;;;;;;21.55;10.63;;;;;;;2.24;100.00;98870.75;5050824;28;20049;-82
2022/12/07 18:13:57;;;;;;;20.55;9.70;;;;;;;2.03;100.00;98852.09;5049231;28;20046;-82
2022/12/07 18:16:28;;;;;;;17.63;9.23;;;;;;;2.15;100.00;98859.03;5048508;28;20076;-81
2022/12/07 18:18:55;;;;;;;20.08;9.75;;;;;;;2.19;100.00;98867.66;5048686;28;20149;-84
2022/12/07 18:21:26;;;;;;;20.67;10.13;;;;;;;2.20;100.00;98874.69;5060062;28;20053;-83
2022/12/07 18:23:56;;;;;;;21.05;10.63;;;;;;;2.04;100.00;98853.78;5051970;28;20144;-81
2022/12/07 18:26:23;;;;;;;;;;;;;;;2.23;100.00;98875.28;5054472;28;20128;-81
2022/12/07 18:28:50;;;;;;;20.58;9.85;;;;;;;2.21;100.00;98866.50;5047194;28;19928;-82
2022/12/07 18:31:17;;;;;;;19.38;10.65;;;;;;;2.23;100.00;98866.38;5048634;28;20045;-81
2022/12/07 18:33:45;;;;;;;22.23;9.77;;;;;;;2.22;100.00;98862.00;5047727;28;20106;-82
2022/12/07 18:36:13;;;;;;;19.45;10.18;;;;;;;2.15;100.00;98844.78;5058550;28;20041;-81
2022/12/07 18:38:40;;;;;;;15.23;8.60;;;;;;;2.06;100.00;98854.50;5049837;28;20557;-82
2022/12/07 18:41:09;;;;;;;18.35;9.20;;;;;;;2.10;100.00;98862.13;5050975;28;20055;-81
2022/12/07 18:43:35;;;;;;;17.77;8.90;;;;;;;2.06;100.00;98857.19;5046223;28;20041;-82
2022/12/07 18:46:02;;;;;;;19.40;8.95;;;;;;;1.98;100.00;98860.56;5043815;28;20053;-81
2022/12/07 18:48:29;;;;;;;19.38;10.95;;;;;;;1.87;100.00;98842.75;5066889;28;20054;-81
2022/12/07 18:51:00;;;;;;;17.00;9.35;;;;;;;1.86;100.00;98840.22;5067049;28;20040;-81
2022/12/07 18:53:27;;;;;;;17.48;9.20;;;;;;;1.78;100.00;98838.22;5064653;28;20044;-81
2022/12/07 18:56:01;;;;;;;20.13;10.23;;;;;;;1.87;100.00;98841.91;5071350;28;20059;-81
2022/12/07 18:58:29;;;;;;;18.08;8.45;;;;;;;2.02;100.00;98855.75;5062337;28;20508;-81
2022/12/07 19:00:55;;;;;;;16.80;8.90;;;;;;;2.07;100.00;98851.69;5065476;28;20051;-82
2022/12/07 19:03:22;;;;;;;20.10;9.80;;;;;;;2.04;100.00;98854.63;5071494;28;20048;-81
2022/12/07 19:05:49;;;;;;;21.42;9.43;;;;;;;1.95;100.00;98840.22;5063261;28;20045;-81
2022/12/07 19:08:15;;;;;;;19.13;9.48;;;;;;;2.11;100.00;98838.84;5054597;28;20064;-81
2022/12/07 19:10:42;;;;;;;17.10;9.23;;;;;;;2.08;100.00;98844.50;5059225;28;20051;-82
2022/12/07 19:13:09;;;;;;;16.85;8.88;;;;;;;1.92;100.00;98815.53;5067633;28;20048;-81
2022/12/07 19:15:39;;;;;;;16.98;9.70;;;;;;;1.98;100.00;98843.63;5063831;28;20044;-81
2022/12/07 19:18:06;;;;;;;19.45;9.85;;;;;;;1.92;100.00;98827.09;5063643;28;20437;-81
2022/12/07 19:20:33;;;;;;;19.30;9.18;;;;;;;1.95;100.00;98825.97;5070089;28;20271;-81
2022/12/07 19:22:59;;;;;;;16.38;9.63;;;;;;;1.95;100.00;98839.38;5068991;28;20052;-81
2022/12/07 19:25:26;;;;;;;21.00;9.27;;;;;;;1.88;100.00;98825.69;5064949;28;20131;-82
2022/12/07 19:27:52;;;;;;;13.27;8.23;;;;;;;1.99;100.00;98837.25;5062195;28;20048;-82
2022/12/07 19:30:19;;;;;;;17.17;9.02;;;;;;;1.88;100.00;98830.19;5071270;28;20055;-81
2022/12/07 19:32:47;;;;;;;17.83;8.50;;;;;;;1.78;100.00;98816.78;5065175;28;20059;-82
2022/12/07 19:35:14;;;;;;;17.45;9.65;;;;;;;1.93;100.00;98827.97;5072063;28;20074;-81
2022/12/07 19:37:41;;;;;;;18.00;9.18;;;;;;;1.76;100.00;98827.63;5072307;28;20135;-82
2022/12/07 19:40:08;;;;;;;19.77;9.57;;;;;;;1.87;100.00;98817.78;5066746;28;20157;-81
2022/12/07 19:42:35;;;;;;;17.52;9.00;;;;;;;1.89;100.00;98837.25;5064776;28;20150;-82
2022/12/07 19:45:02;;;;;;;18.77;8.88;;;;;;;1.88;100.00;98841.78;5079800;28;20055;-81
2022/12/07 19:47:28;;;;;;;15.80;9.10;;;;;;;1.80;100.00;98832.72;5072147;28;20552;-82
2022/12/07 19:49:56;;;;;;;14.90;8.73;;;;;;;1.87;100.00;98834.72;5071174;28;20052;-82
2022/12/07 19:52:23;;;;;;;16.83;9.10;;;;;;;1.91;100.00;98825.41;5071346;28;20179;-81
2022/12/07 19:54:49;;;;;;;19.10;8.05;;;;;;;2.01;100.00;98827.25;5074119;28;20044;-82
2022/12/07 19:57:17;;;;;;;15.52;8.55;;;;;;;1.89;100.00;98810.44;5066283;28;20052;-81
2022/12/07 19:59:45;;;;;;;17.45;8.88;;;;;;;1.87;100.00;98807.91;5070683;28;20054;-82
2022/12/07 20:02:13;;;;;;;16.25;7.72;;;;;;;1.89;100.00;98803.25;5066875;28;20061;-82
2022/12/07 20:04:39;;;;;;;13.15;7.70;;;;;;;1.91;100.00;98817.38;5060067;28;20052;-82
2022/12/07 20:07:08;;;;;;;12.88;7.05;;;;;;;1.93;100.00;98810.03;5067248;28;20127;-82
2022/12/07 20:09:34;;;;;;;15.27;7.90;;;;;;;1.83;100.00;98795.75;5067603;28;20044;-83
2022/12/07 20:14:45;;;;;;;15.00;7.60;;;;;;;1.94;100.00;98810.88;5063750;28;20182;-82
2022/12/07 20:17:12;;;;;;;18.30;9.10;;;;;;;2.06;100.00;98804.41;5063463;28;20052;-82
2022/12/07 20:19:39;;;;;;;14.63;7.50;;;;;;;2.01;100.00;98797.78;5069013;28;20049;-82
2022/12/07 20:22:07;;;;;;;14.80;7.97;;;;;;;1.93;100.00;98790.41;5067063;28;20055;-82
2022/12/07 20:24:35;;;;;;;16.67;8.52;;;;;;;1.92;100.00;98788.72;5070751;28;20036;-81
2022/12/07 20:27:02;;;;;;;13.57;7.93;;;;;;;1.92;100.00;98802.97;5067537;28;20049;-81
2022/12/07 20:29:28;;;;;;;17.23;8.82;;;;;;;1.87;100.00;98791.81;5068171;28;20051;-82
2022/12/07 20:31:57;;;;;;;14.70;8.05;;;;;;;1.91;100.00;98798.59;5067685;28;20051;-81
2022/12/07 20:34:25;;;;;;;14.30;8.40;;;;;;;1.94;100.00;98813.53;5068410;28;20503;-81
2022/12/07 20:36:52;;;;;;;17.58;7.55;;;;;;;1.79;100.00;98794.31;5069219;28;20052;-82
2022/12/07 20:39:22;;;;;;;18.27;8.48;;;;;;;1.85;100.00;98791.13;5068080;28;20110;-81
2022/12/07 20:44:33;;;;;;;15.43;7.40;;;;;;;1.70;100.00;98788.00;5070778;28;20021;-81
2022/12/07 20:47:00;;;;;;;16.00;8.50;;;;;;;1.70;100.00;98800.53;5069751;28;20040;-81
2022/12/07 20:49:27;;;;;;;21.23;9.18;;;;;;;1.79;100.00;98801.53;5052154;28;20055;-82
2022/12/07 20:51:53;;;;;;;15.55;8.38;;;;;;;1.84;100.00;98797.47;5062575;28;20127;-81
2022/12/07 20:54:21;;;;;;;16.30;8.02;;;;;;;1.74;100.00;98773.31;5067387;28;20053;-82
2022/12/07 20:56:48;;;;;;;16.88;9.25;;;;;;;1.79;100.00;98778.25;5069897;28;20447;-81
2022/12/07 20:59:15;;;;;;;14.57;8.57;;;;;;;1.83;100.00;98781.50;5063380;28;20047;-82
2022/12/07 21:01:42;;;;;;;20.92;8.07;;;;;;;1.90;100.00;98793.38;5049884;28;20055;-82
2022/12/07 21:04:11;;;;;;;15.05;7.72;;;;;;;1.74;100.00;98767.09;5049794;28;20394;-81
2022/12/07 21:06:38;;;;;;;19.58;9.02;;;;;;;1.87;100.00;98786.47;5062684;28;20044;-81
2022/12/07 21:09:04;;;;;;;17.13;8.40;;;;;;;1.73;100.00;98765.41;5068977;28;20415;-81
2022/12/07 21:11:32;;;;;;;20.65;10.85;;;;;;;1.74;100.00;98770.63;5067880;28;20407;-81
2022/12/07 21:13:59;;;;;;;20.10;9.18;;;;;;;1.64;100.00;98759.06;5069665;28;20128;-81
2022/12/07 21:16:28;;;;;;;14.65;8.55;;;;;;;1.65;100.00;98758.06;5069584;28;20048;-81
2022/12/07 21:18:55;;;;;;;16.33;7.93;;;;;;;1.67;100.00;98769.50;5069161;28;20053;-83
2022/12/07 21:21:22;;;;;;;18.67;8.63;;;;;;;1.60;100.00;98752.28;5070438;28;20048;-81
2022/12/07 21:23:51;;;;;;;15.60;7.90;;;;;;;1.54;100.00;98745.63;5057674;28;20556;-81